sensor_id;sensor_type;location;lat;lon;timestamp;P1;durP1;ratioP1;P2;durP2;ratioP2
8254;SDS011;4167;48.162;11.542;2024-03-02T00:00:15;14.52;;;6.45;;
8254;SDS011;4167;48.162;11.542;2024-03-02T00:02:43;10.68;;;6.65;;
8254;SDS011;4167;48.162;11.542;2024-03-02T00:05:10;13.43;;;7.55;;
8254;SDS011;4167;48.162;11.542;2024-03-02T00:07:37;11.77;;;7.03;;
8254;SDS011;4167;48.162;11.542;2024-03-02T00:10:07;10.23;;;5.78;;
8254;SDS011;4167;48.162;11.542;2024-03-02T00:12:36;11.40;;;6.10;;
8254;SDS011;4167;48.162;11.542;2024-03-02T00:15:03;11.63;;;6.47;;
8254;SDS011;4167;48.162;11.542;2024-03-02T00:17:31;10.07;;;6.13;;
8254;SDS011;4167;48.162;11.542;2024-03-02T00:19:57;10.80;;;6.53;;
8254;SDS011;4167;48.162;11.542;2024-03-02T00:22:24;13.82;;;6.40;;
8254;SDS011;4167;48.162;11.542;2024-03-02T00:24:50;12.05;;;6.38;;
8254;SDS011;4167;48.162;11.542;2024-03-02T00:27:18;10.70;;;5.78;;
8254;SDS011;4167;48.162;11.542;2024-03-02T00:29:45;12.05;;;6.32;;
8254;SDS011;4167;48.162;11.542;2024-03-02T00:32:12;8.95;;;5.05;;
8254;SDS011;4167;48.162;11.542;2024-03-02T00:34:40;14.30;;;6.72;;
8254;SDS011;4167;48.162;11.542;2024-03-02T00:37:06;11.27;;;6.35;;
8254;SDS011;4167;48.162;11.542;2024-03-02T00:39:33;11.88;;;6.15;;
8254;SDS011;4167;48.162;11.542;2024-03-02T00:41:59;10.23;;;5.78;;
8254;SDS011;4167;48.162;11.542;2024-03-02T00:44:27;11.40;;;6.15;;
8254;SDS011;4167;48.162;11.542;2024-03-02T00:46:55;12.15;;;5.72;;
8254;SDS011;4167;48.162;11.542;2024-03-02T00:49:23;9.02;;;5.15;;
8254;SDS011;4167;48.162;11.542;2024-03-02T00:51:52;12.52;;;6.50;;
8254;SDS011;4167;48.162;11.542;2024-03-02T00:54:19;8.02;;;5.40;;
8254;SDS011;4167;48.162;11.542;2024-03-02T00:56:48;11.95;;;6.00;;
8254;SDS011;4167;48.162;11.542;2024-03-02T00:59:15;11.30;;;7.25;;
8254;SDS011;4167;48.162;11.542;2024-03-02T01:01:43;8.23;;;4.45;;
8254;SDS011;4167;48.162;11.542;2024-03-02T01:04:10;11.48;;;6.35;;
8254;SDS011;4167;48.162;11.542;2024-03-02T01:06:39;13.27;;;6.43;;
8254;SDS011;4167;48.162;11.542;2024-03-02T01:09:05;12.10;;;6.93;;
8254;SDS011;4167;48.162;11.542;2024-03-02T01:11:32;10.35;;;5.93;;
8254;SDS011;4167;48.162;11.542;2024-03-02T01:13:58;11.35;;;6.57;;
8254;SDS011;4167;48.162;11.542;2024-03-02T01:16:25;12.73;;;6.35;;
8254;SDS011;4167;48.162;11.542;2024-03-02T01:18:53;10.75;;;7.22;;
8254;SDS011;4167;48.162;11.542;2024-03-02T01:21:19;12.73;;;6.88;;
8254;SDS011;4167;48.162;11.542;2024-03-02T01:23:46;12.00;;;6.00;;
8254;SDS011;4167;48.162;11.542;2024-03-02T01:26:12;11.10;;;6.63;;
8254;SDS011;4167;48.162;11.542;2024-03-02T01:28:39;11.63;;;6.40;;
8254;SDS011;4167;48.162;11.542;2024-03-02T01:31:05;10.18;;;7.30;;
8254;SDS011;4167;48.162;11.542;2024-03-02T01:33:32;13.70;;;6.78;;
8254;SDS011;4167;48.162;11.542;2024-03-02T01:35:59;11.25;;;6.30;;
8254;SDS011;4167;48.162;11.542;2024-03-02T01:38:26;12.77;;;7.47;;
8254;SDS011;4167;48.162;11.542;2024-03-02T01:40:53;12.60;;;6.88;;
8254;SDS011;4167;48.162;11.542;2024-03-02T01:43:21;12.38;;;7.32;;
8254;SDS011;4167;48.162;11.542;2024-03-02T01:45:48;14.13;;;7.05;;
8254;SDS011;4167;48.162;11.542;2024-03-02T01:48:14;12.98;;;7.72;;
8254;SDS011;4167;48.162;11.542;2024-03-02T01:50:41;10.40;;;5.25;;
8254;SDS011;4167;48.162;11.542;2024-03-02T01:53:09;12.13;;;7.00;;
8254;SDS011;4167;48.162;11.542;2024-03-02T01:55:35;8.27;;;5.43;;
8254;SDS011;4167;48.162;11.542;2024-03-02T01:58:02;9.00;;;5.53;;
8254;SDS011;4167;48.162;11.542;2024-03-02T02:00:28;11.00;;;6.00;;
8254;SDS011;4167;48.162;11.542;2024-03-02T02:02:55;7.82;;;4.57;;
8254;SDS011;4167;48.162;11.542;2024-03-02T02:05:22;9.02;;;4.80;;
8254;SDS011;4167;48.162;11.542;2024-03-02T02:07:49;9.80;;;4.85;;
8254;SDS011;4167;48.162;11.542;2024-03-02T02:10:17;9.57;;;4.60;;
8254;SDS011;4167;48.162;11.542;2024-03-02T02:12:44;10.68;;;5.95;;
8254;SDS011;4167;48.162;11.542;2024-03-02T02:15:26;10.30;;;5.72;;
8254;SDS011;4167;48.162;11.542;2024-03-02T02:17:54;7.80;;;4.70;;
8254;SDS011;4167;48.162;11.542;2024-03-02T02:20:20;11.18;;;5.85;;
8254;SDS011;4167;48.162;11.542;2024-03-02T02:22:58;11.25;;;5.88;;
8254;SDS011;4167;48.162;11.542;2024-03-02T02:25:25;10.90;;;5.18;;
8254;SDS011;4167;48.162;11.542;2024-03-02T02:27:52;11.15;;;5.95;;
8254;SDS011;4167;48.162;11.542;2024-03-02T02:30:19;11.48;;;6.07;;
8254;SDS011;4167;48.162;11.542;2024-03-02T02:32:46;10.02;;;5.95;;
8254;SDS011;4167;48.162;11.542;2024-03-02T02:35:12;9.02;;;5.65;;
8254;SDS011;4167;48.162;11.542;2024-03-02T02:37:39;10.88;;;5.25;;
8254;SDS011;4167;48.162;11.542;2024-03-02T02:40:07;13.00;;;6.90;;
8254;SDS011;4167;48.162;11.542;2024-03-02T02:42:34;12.05;;;6.57;;
8254;SDS011;4167;48.162;11.542;2024-03-02T02:45:01;11.90;;;6.93;;
8254;SDS011;4167;48.162;11.542;2024-03-02T02:47:27;10.50;;;5.60;;
8254;SDS011;4167;48.162;11.542;2024-03-02T02:49:55;11.57;;;5.78;;
8254;SDS011;4167;48.162;11.542;2024-03-02T02:52:21;11.93;;;5.95;;
8254;SDS011;4167;48.162;11.542;2024-03-02T02:54:48;15.15;;;6.53;;
8254;SDS011;4167;48.162;11.542;2024-03-02T02:57:16;12.75;;;7.05;;
8254;SDS011;4167;48.162;11.542;2024-03-02T02:59:42;11.43;;;6.05;;
8254;SDS011;4167;48.162;11.542;2024-03-02T03:02:09;10.63;;;5.65;;
8254;SDS011;4167;48.162;11.542;2024-03-02T03:04:35;12.98;;;7.18;;
8254;SDS011;4167;48.162;11.542;2024-03-02T03:07:01;10.85;;;5.95;;
8254;SDS011;4167;48.162;11.542;2024-03-02T03:09:27;10.65;;;6.38;;
8254;SDS011;4167;48.162;11.542;2024-03-02T03:11:53;9.93;;;5.15;;
8254;SDS011;4167;48.162;11.542;2024-03-02T03:14:21;13.38;;;7.15;;
8254;SDS011;4167;48.162;11.542;2024-03-02T03:16:48;9.88;;;5.40;;
8254;SDS011;4167;48.162;11.542;2024-03-02T03:19:15;11.57;;;6.43;;
8254;SDS011;4167;48.162;11.542;2024-03-02T03:21:43;11.13;;;6.88;;
8254;SDS011;4167;48.162;11.542;2024-03-02T03:24:09;11.20;;;6.63;;
8254;SDS011;4167;48.162;11.542;2024-03-02T03:26:35;9.95;;;5.57;;
8254;SDS011;4167;48.162;11.542;2024-03-02T03:29:02;13.60;;;6.95;;
8254;SDS011;4167;48.162;11.542;2024-03-02T03:31:30;9.20;;;5.22;;
8254;SDS011;4167;48.162;11.542;2024-03-02T03:33:56;10.02;;;5.13;;
8254;SDS011;4167;48.162;11.542;2024-03-02T03:36:23;10.50;;;6.43;;
8254;SDS011;4167;48.162;11.542;2024-03-02T03:38:50;9.23;;;5.55;;
8254;SDS011;4167;48.162;11.542;2024-03-02T03:41:16;12.98;;;7.72;;
8254;SDS011;4167;48.162;11.542;2024-03-02T03:43:43;9.10;;;5.53;;
8254;SDS011;4167;48.162;11.542;2024-03-02T03:46:09;7.20;;;4.82;;
8254;SDS011;4167;48.162;11.542;2024-03-02T03:48:37;7.85;;;5.05;;
8254;SDS011;4167;48.162;11.542;2024-03-02T03:51:04;9.55;;;6.50;;
8254;SDS011;4167;48.162;11.542;2024-03-02T03:53:30;11.50;;;6.35;;
8254;SDS011;4167;48.162;11.542;2024-03-02T03:55:57;11.00;;;6.65;;
8254;SDS011;4167;48.162;11.542;2024-03-02T03:58:23;9.93;;;6.10;;
8254;SDS011;4167;48.162;11.542;2024-03-02T04:00:50;9.57;;;4.93;;
8254;SDS011;4167;48.162;11.542;2024-03-02T04:03:16;12.15;;;6.05;;
8254;SDS011;4167;48.162;11.542;2024-03-02T04:05:44;8.77;;;5.70;;
8254;SDS011;4167;48.162;11.542;2024-03-02T04:08:10;11.07;;;6.00;;
8254;SDS011;4167;48.162;11.542;2024-03-02T04:10:37;12.63;;;6.55;;
8254;SDS011;4167;48.162;11.542;2024-03-02T04:13:03;11.57;;;7.03;;
8254;SDS011;4167;48.162;11.542;2024-03-02T04:15:30;11.52;;;5.93;;
8254;SDS011;4167;48.162;11.542;2024-03-02T04:17:56;11.55;;;6.85;;
8254;SDS011;4167;48.162;11.542;2024-03-02T04:20:23;8.90;;;5.53;;
8254;SDS011;4167;48.162;11.542;2024-03-02T04:22:51;14.40;;;6.82;;
8254;SDS011;4167;48.162;11.542;2024-03-02T04:25:18;12.90;;;6.60;;
8254;SDS011;4167;48.162;11.542;2024-03-02T04:27:45;12.30;;;7.45;;
8254;SDS011;4167;48.162;11.542;2024-03-02T04:30:11;11.57;;;7.40;;
8254;SDS011;4167;48.162;11.542;2024-03-02T04:32:38;11.48;;;6.45;;
8254;SDS011;4167;48.162;11.542;2024-03-02T04:35:05;12.68;;;7.20;;
8254;SDS011;4167;48.162;11.542;2024-03-02T04:37:34;11.88;;;6.38;;
8254;SDS011;4167;48.162;11.542;2024-03-02T04:40:02;12.50;;;6.88;;
8254;SDS011;4167;48.162;11.542;2024-03-02T04:42:29;12.30;;;7.00;;
8254;SDS011;4167;48.162;11.542;2024-03-02T04:44:55;12.25;;;6.70;;
8254;SDS011;4167;48.162;11.542;2024-03-02T04:47:22;12.90;;;6.32;;
8254;SDS011;4167;48.162;11.542;2024-03-02T04:49:48;10.32;;;6.05;;
8254;SDS011;4167;48.162;11.542;2024-03-02T04:52:15;11.40;;;6.63;;
8254;SDS011;4167;48.162;11.542;2024-03-02T04:54:42;13.15;;;7.60;;
8254;SDS011;4167;48.162;11.542;2024-03-02T04:57:24;12.68;;;6.65;;
8254;SDS011;4167;48.162;11.542;2024-03-02T04:59:50;13.35;;;7.28;;
8254;SDS011;4167;48.162;11.542;2024-03-02T05:02:17;13.52;;;7.30;;
8254;SDS011;4167;48.162;11.542;2024-03-02T05:04:43;13.50;;;7.57;;
8254;SDS011;4167;48.162;11.542;2024-03-02T05:07:09;12.52;;;7.00;;
8254;SDS011;4167;48.162;11.542;2024-03-02T05:09:36;14.25;;;7.43;;
8254;SDS011;4167;48.162;11.542;2024-03-02T05:12:03;13.77;;;7.43;;
8254;SDS011;4167;48.162;11.542;2024-03-02T05:14:43;13.23;;;7.53;;
8254;SDS011;4167;48.162;11.542;2024-03-02T05:17:10;12.98;;;7.63;;
8254;SDS011;4167;48.162;11.542;2024-03-02T05:19:36;13.13;;;7.10;;
8254;SDS011;4167;48.162;11.542;2024-03-02T05:22:03;13.55;;;6.80;;
8254;SDS011;4167;48.162;11.542;2024-03-02T05:26:57;13.15;;;7.35;;
8254;SDS011;4167;48.162;11.542;2024-03-02T05:29:23;13.80;;;7.35;;
8254;SDS011;4167;48.162;11.542;2024-03-02T05:31:51;13.07;;;6.80;;
8254;SDS011;4167;48.162;11.542;2024-03-02T05:34:18;14.07;;;7.35;;
8254;SDS011;4167;48.162;11.542;2024-03-02T05:36:44;15.73;;;7.15;;
8254;SDS011;4167;48.162;11.542;2024-03-02T05:39:11;14.98;;;6.95;;
8254;SDS011;4167;48.162;11.542;2024-03-02T05:41:37;12.50;;;7.45;;
8254;SDS011;4167;48.162;11.542;2024-03-02T05:44:04;14.80;;;8.40;;
8254;SDS011;4167;48.162;11.542;2024-03-02T05:46:30;14.75;;;7.65;;
8254;SDS011;4167;48.162;11.542;2024-03-02T05:48:58;15.75;;;9.05;;
8254;SDS011;4167;48.162;11.542;2024-03-02T05:51:25;15.32;;;7.57;;
8254;SDS011;4167;48.162;11.542;2024-03-02T05:53:51;15.05;;;7.82;;
8254;SDS011;4167;48.162;11.542;2024-03-02T05:56:18;14.43;;;8.13;;
8254;SDS011;4167;48.162;11.542;2024-03-02T05:58:44;13.73;;;7.43;;
8254;SDS011;4167;48.162;11.542;2024-03-02T06:01:22;11.98;;;6.88;;
8254;SDS011;4167;48.162;11.542;2024-03-02T06:03:53;14.63;;;8.20;;
8254;SDS011;4167;48.162;11.542;2024-03-02T06:06:21;12.75;;;7.10;;
8254;SDS011;4167;48.162;11.542;2024-03-02T06:08:47;14.63;;;7.68;;
8254;SDS011;4167;48.162;11.542;2024-03-02T06:11:14;13.40;;;7.95;;
8254;SDS011;4167;48.162;11.542;2024-03-02T06:13:40;13.18;;;7.75;;
8254;SDS011;4167;48.162;11.542;2024-03-02T06:16:07;16.73;;;7.78;;
8254;SDS011;4167;48.162;11.542;2024-03-02T06:18:34;18.25;;;8.98;;
8254;SDS011;4167;48.162;11.542;2024-03-02T06:21:00;15.95;;;7.85;;
8254;SDS011;4167;48.162;11.542;2024-03-02T06:23:28;17.58;;;8.23;;
8254;SDS011;4167;48.162;11.542;2024-03-02T06:25:55;16.33;;;9.55;;
8254;SDS011;4167;48.162;11.542;2024-03-02T06:28:21;15.43;;;8.02;;
8254;SDS011;4167;48.162;11.542;2024-03-02T06:30:48;19.30;;;8.75;;
8254;SDS011;4167;48.162;11.542;2024-03-02T06:33:14;13.80;;;7.90;;
8254;SDS011;4167;48.162;11.542;2024-03-02T06:35:41;14.30;;;7.93;;
8254;SDS011;4167;48.162;11.542;2024-03-02T06:38:07;14.57;;;9.25;;
8254;SDS011;4167;48.162;11.542;2024-03-02T06:40:35;16.08;;;8.35;;
8254;SDS011;4167;48.162;11.542;2024-03-02T06:43:03;16.13;;;8.18;;
8254;SDS011;4167;48.162;11.542;2024-03-02T06:45:30;18.48;;;9.48;;
8254;SDS011;4167;48.162;11.542;2024-03-02T06:47:56;12.10;;;7.13;;
8254;SDS011;4167;48.162;11.542;2024-03-02T06:50:22;15.38;;;8.48;;
8254;SDS011;4167;48.162;11.542;2024-03-02T06:52:49;14.15;;;7.85;;
8254;SDS011;4167;48.162;11.542;2024-03-02T06:55:15;15.40;;;7.95;;
8254;SDS011;4167;48.162;11.542;2024-03-02T06:57:43;17.70;;;8.60;;
8254;SDS011;4167;48.162;11.542;2024-03-02T07:00:10;14.18;;;8.35;;
8254;SDS011;4167;48.162;11.542;2024-03-02T07:02:37;15.02;;;7.93;;
8254;SDS011;4167;48.162;11.542;2024-03-02T07:05:06;15.10;;;7.53;;
8254;SDS011;4167;48.162;11.542;2024-03-02T07:07:33;15.57;;;7.38;;
8254;SDS011;4167;48.162;11.542;2024-03-02T07:10:00;14.80;;;7.43;;
8254;SDS011;4167;48.162;11.542;2024-03-02T07:12:27;13.45;;;7.60;;
8254;SDS011;4167;48.162;11.542;2024-03-02T07:14:54;13.40;;;7.63;;
8254;SDS011;4167;48.162;11.542;2024-03-02T07:17:50;11.88;;;7.20;;
8254;SDS011;4167;48.162;11.542;2024-03-02T07:20:16;16.67;;;7.25;;
8254;SDS011;4167;48.162;11.542;2024-03-02T07:22:43;13.23;;;7.63;;
8254;SDS011;4167;48.162;11.542;2024-03-02T07:25:09;13.20;;;7.03;;
8254;SDS011;4167;48.162;11.542;2024-03-02T07:27:36;14.48;;;7.95;;
8254;SDS011;4167;48.162;11.542;2024-03-02T07:30:04;14.73;;;8.32;;
8254;SDS011;4167;48.162;11.542;2024-03-02T07:32:31;16.65;;;8.77;;
8254;SDS011;4167;48.162;11.542;2024-03-02T07:34:58;12.73;;;8.50;;
8254;SDS011;4167;48.162;11.542;2024-03-02T07:37:26;14.32;;;9.02;;
8254;SDS011;4167;48.162;11.542;2024-03-02T07:39:52;13.35;;;7.43;;
8254;SDS011;4167;48.162;11.542;2024-03-02T07:42:19;11.73;;;7.63;;
8254;SDS011;4167;48.162;11.542;2024-03-02T07:44:45;11.48;;;7.05;;
8254;SDS011;4167;48.162;11.542;2024-03-02T07:47:13;10.20;;;6.68;;
8254;SDS011;4167;48.162;11.542;2024-03-02T07:49:40;15.07;;;7.55;;
8254;SDS011;4167;48.162;11.542;2024-03-02T07:52:06;13.35;;;7.63;;
8254;SDS011;4167;48.162;11.542;2024-03-02T07:54:33;11.50;;;7.43;;
8254;SDS011;4167;48.162;11.542;2024-03-02T07:56:59;12.90;;;7.70;;
8254;SDS011;4167;48.162;11.542;2024-03-02T07:59:26;12.13;;;8.60;;
8254;SDS011;4167;48.162;11.542;2024-03-02T08:01:52;15.85;;;7.88;;
8254;SDS011;4167;48.162;11.542;2024-03-02T08:04:21;12.77;;;7.97;;
8254;SDS011;4167;48.162;11.542;2024-03-02T08:06:48;14.15;;;8.57;;
8254;SDS011;4167;48.162;11.542;2024-03-02T08:09:14;13.75;;;7.30;;
8254;SDS011;4167;48.162;11.542;2024-03-02T08:11:41;13.10;;;8.80;;
8254;SDS011;4167;48.162;11.542;2024-03-02T08:14:07;11.23;;;7.22;;
8254;SDS011;4167;48.162;11.542;2024-03-02T08:16:34;13.50;;;7.88;;
8254;SDS011;4167;48.162;11.542;2024-03-02T08:19:00;14.98;;;8.38;;
8254;SDS011;4167;48.162;11.542;2024-03-02T08:21:29;11.25;;;6.82;;
8254;SDS011;4167;48.162;11.542;2024-03-02T08:23:57;15.13;;;8.05;;
8254;SDS011;4167;48.162;11.542;2024-03-02T08:26:24;11.23;;;7.45;;
8254;SDS011;4167;48.162;11.542;2024-03-02T08:28:50;10.52;;;6.15;;
8254;SDS011;4167;48.162;11.542;2024-03-02T08:31:17;12.23;;;6.20;;
8254;SDS011;4167;48.162;11.542;2024-03-02T08:33:43;11.57;;;6.90;;
8254;SDS011;4167;48.162;11.542;2024-03-02T08:36:09;10.60;;;6.50;;
8254;SDS011;4167;48.162;11.542;2024-03-02T08:38:37;8.60;;;4.43;;
8254;SDS011;4167;48.162;11.542;2024-03-02T08:41:04;9.57;;;4.90;;
8254;SDS011;4167;48.162;11.542;2024-03-02T08:43:30;12.55;;;5.32;;
8254;SDS011;4167;48.162;11.542;2024-03-02T08:45:57;9.18;;;5.70;;
8254;SDS011;4167;48.162;11.542;2024-03-02T08:48:23;10.07;;;5.57;;
8254;SDS011;4167;48.162;11.542;2024-03-02T08:50:50;10.35;;;5.60;;
8254;SDS011;4167;48.162;11.542;2024-03-02T08:53:16;10.20;;;5.35;;
8254;SDS011;4167;48.162;11.542;2024-03-02T08:55:45;11.27;;;5.68;;
8254;SDS011;4167;48.162;11.542;2024-03-02T08:58:12;9.30;;;6.00;;
8254;SDS011;4167;48.162;11.542;2024-03-02T09:00:41;12.38;;;6.45;;
8254;SDS011;4167;48.162;11.542;2024-03-02T09:03:07;8.95;;;5.38;;
8254;SDS011;4167;48.162;11.542;2024-03-02T09:05:34;9.07;;;5.40;;
8254;SDS011;4167;48.162;11.542;2024-03-02T09:08:00;8.40;;;4.75;;
8254;SDS011;4167;48.162;11.542;2024-03-02T09:10:28;12.90;;;7.32;;
8254;SDS011;4167;48.162;11.542;2024-03-02T09:12:56;11.77;;;6.45;;
8254;SDS011;4167;48.162;11.542;2024-03-02T09:15:23;12.15;;;7.10;;
8254;SDS011;4167;48.162;11.542;2024-03-02T09:17:49;13.68;;;7.82;;
8254;SDS011;4167;48.162;11.542;2024-03-02T09:20:16;12.13;;;8.30;;
8254;SDS011;4167;48.162;11.542;2024-03-02T09:22:42;11.77;;;7.55;;
8254;SDS011;4167;48.162;11.542;2024-03-02T09:25:09;11.57;;;7.80;;
8254;SDS011;4167;48.162;11.542;2024-03-02T09:27:36;10.95;;;6.75;;
8254;SDS011;4167;48.162;11.542;2024-03-02T09:30:04;13.85;;;8.10;;
8254;SDS011;4167;48.162;11.542;2024-03-02T09:32:33;14.65;;;7.95;;
8254;SDS011;4167;48.162;11.542;2024-03-02T09:34:59;8.05;;;5.10;;
8254;SDS011;4167;48.162;11.542;2024-03-02T09:37:26;6.00;;;4.13;;
8254;SDS011;4167;48.162;11.542;2024-03-02T09:39:53;12.07;;;7.32;;
8254;SDS011;4167;48.162;11.542;2024-03-02T09:42:20;13.60;;;7.93;;
8254;SDS011;4167;48.162;11.542;2024-03-02T09:44:47;10.18;;;6.53;;
8254;SDS011;4167;48.162;11.542;2024-03-02T09:47:15;13.98;;;7.75;;
8254;SDS011;4167;48.162;11.542;2024-03-02T09:49:42;11.52;;;6.95;;
8254;SDS011;4167;48.162;11.542;2024-03-02T09:52:08;13.27;;;7.50;;
8254;SDS011;4167;48.162;11.542;2024-03-02T09:54:36;8.68;;;5.25;;
8254;SDS011;4167;48.162;11.542;2024-03-02T09:57:03;10.70;;;6.80;;
8254;SDS011;4167;48.162;11.542;2024-03-02T09:59:30;9.27;;;5.55;;
8254;SDS011;4167;48.162;11.542;2024-03-02T10:01:57;13.20;;;6.03;;
8254;SDS011;4167;48.162;11.542;2024-03-02T10:04:26;8.70;;;5.78;;
8254;SDS011;4167;48.162;11.542;2024-03-02T10:07:08;9.27;;;4.85;;
8254;SDS011;4167;48.162;11.542;2024-03-02T10:09:36;10.32;;;5.43;;
8254;SDS011;4167;48.162;11.542;2024-03-02T10:12:03;9.25;;;4.80;;
8254;SDS011;4167;48.162;11.542;2024-03-02T10:14:30;8.40;;;4.93;;
8254;SDS011;4167;48.162;11.542;2024-03-02T10:17:01;10.27;;;6.05;;
8254;SDS011;4167;48.162;11.542;2024-03-02T10:19:29;10.73;;;5.65;;
8254;SDS011;4167;48.162;11.542;2024-03-02T10:21:58;10.63;;;5.97;;
8254;SDS011;4167;48.162;11.542;2024-03-02T10:24:25;11.30;;;6.07;;
8254;SDS011;4167;48.162;11.542;2024-03-02T10:26:52;9.70;;;6.63;;
8254;SDS011;4167;48.162;11.542;2024-03-02T10:29:19;11.40;;;6.50;;
8254;SDS011;4167;48.162;11.542;2024-03-02T10:31:45;13.32;;;6.47;;
8254;SDS011;4167;48.162;11.542;2024-03-02T10:34:12;7.93;;;4.60;;
8254;SDS011;4167;48.162;11.542;2024-03-02T10:36:42;8.80;;;4.68;;
8254;SDS011;4167;48.162;11.542;2024-03-02T10:39:10;6.93;;;4.03;;
8254;SDS011;4167;48.162;11.542;2024-03-02T10:41:39;8.15;;;4.53;;
8254;SDS011;4167;48.162;11.542;2024-03-02T10:44:06;9.40;;;4.65;;
8254;SDS011;4167;48.162;11.542;2024-03-02T10:46:34;9.10;;;5.07;;
8254;SDS011;4167;48.162;11.542;2024-03-02T10:49:01;9.88;;;5.50;;
8254;SDS011;4167;48.162;11.542;2024-03-02T10:51:29;8.20;;;5.30;;
8254;SDS011;4167;48.162;11.542;2024-03-02T10:53:58;14.50;;;4.35;;
8254;SDS011;4167;48.162;11.542;2024-03-02T10:56:27;7.10;;;3.83;;
8254;SDS011;4167;48.162;11.542;2024-03-02T10:58:55;8.60;;;4.85;;
8254;SDS011;4167;48.162;11.542;2024-03-02T11:01:28;10.00;;;4.80;;
8254;SDS011;4167;48.162;11.542;2024-03-02T11:03:55;8.73;;;5.00;;
8254;SDS011;4167;48.162;11.542;2024-03-02T11:06:22;11.88;;;6.47;;
8254;SDS011;4167;48.162;11.542;2024-03-02T11:08:51;21.92;;;10.32;;
8254;SDS011;4167;48.162;11.542;2024-03-02T11:11:22;11.27;;;5.35;;
8254;SDS011;4167;48.162;11.542;2024-03-02T11:13:54;10.40;;;5.80;;
8254;SDS011;4167;48.162;11.542;2024-03-02T11:16:26;14.85;;;5.88;;
8254;SDS011;4167;48.162;11.542;2024-03-02T11:18:57;11.57;;;6.00;;
8254;SDS011;4167;48.162;11.542;2024-03-02T11:21:25;9.00;;;4.95;;
8254;SDS011;4167;48.162;11.542;2024-03-02T11:23:52;11.60;;;5.35;;
8254;SDS011;4167;48.162;11.542;2024-03-02T11:26:18;9.15;;;5.30;;
8254;SDS011;4167;48.162;11.542;2024-03-02T11:28:47;11.73;;;5.90;;
8254;SDS011;4167;48.162;11.542;2024-03-02T11:31:14;13.50;;;7.43;;
8254;SDS011;4167;48.162;11.542;2024-03-02T11:33:40;13.77;;;6.07;;
8254;SDS011;4167;48.162;11.542;2024-03-02T11:36:08;12.52;;;7.75;;
8254;SDS011;4167;48.162;11.542;2024-03-02T11:38:35;10.38;;;5.82;;
8254;SDS011;4167;48.162;11.542;2024-03-02T11:41:02;11.93;;;6.00;;
8254;SDS011;4167;48.162;11.542;2024-03-02T11:43:33;12.50;;;6.78;;
8254;SDS011;4167;48.162;11.542;2024-03-02T11:46:04;16.95;;;7.38;;
8254;SDS011;4167;48.162;11.542;2024-03-02T11:48:32;16.27;;;7.38;;
8254;SDS011;4167;48.162;11.542;2024-03-02T11:50:59;15.32;;;7.30;;
8254;SDS011;4167;48.162;11.542;2024-03-02T11:53:27;18.52;;;8.40;;
8254;SDS011;4167;48.162;11.542;2024-03-02T11:55:55;16.23;;;8.15;;
8254;SDS011;4167;48.162;11.542;2024-03-02T11:58:22;15.98;;;8.75;;
8254;SDS011;4167;48.162;11.542;2024-03-02T12:00:51;16.63;;;8.38;;
8254;SDS011;4167;48.162;11.542;2024-03-02T12:03:18;13.60;;;6.70;;
8254;SDS011;4167;48.162;11.542;2024-03-02T12:05:48;15.15;;;7.28;;
8254;SDS011;4167;48.162;11.542;2024-03-02T12:10:41;14.18;;;8.07;;
8254;SDS011;4167;48.162;11.542;2024-03-02T12:13:09;18.25;;;8.52;;
8254;SDS011;4167;48.162;11.542;2024-03-02T12:15:37;17.10;;;7.22;;
8254;SDS011;4167;48.162;11.542;2024-03-02T12:18:06;16.80;;;8.25;;
8254;SDS011;4167;48.162;11.542;2024-03-02T12:20:33;17.20;;;9.05;;
8254;SDS011;4167;48.162;11.542;2024-03-02T12:23:00;16.77;;;7.88;;
8254;SDS011;4167;48.162;11.542;2024-03-02T12:25:27;14.27;;;8.38;;
8254;SDS011;4167;48.162;11.542;2024-03-02T12:27:54;15.85;;;8.55;;
8254;SDS011;4167;48.162;11.542;2024-03-02T12:30:21;20.98;;;7.35;;
8254;SDS011;4167;48.162;11.542;2024-03-02T12:32:49;13.82;;;6.15;;
8254;SDS011;4167;48.162;11.542;2024-03-02T12:35:17;10.32;;;6.60;;
8254;SDS011;4167;48.162;11.542;2024-03-02T12:37:45;13.40;;;8.05;;
8254;SDS011;4167;48.162;11.542;2024-03-02T12:40:12;12.70;;;6.80;;
8254;SDS011;4167;48.162;11.542;2024-03-02T12:42:39;13.57;;;7.78;;
8254;SDS011;4167;48.162;11.542;2024-03-02T12:45:07;13.20;;;8.18;;
8254;SDS011;4167;48.162;11.542;2024-03-02T12:47:33;13.02;;;7.10;;
8254;SDS011;4167;48.162;11.542;2024-03-02T12:50:00;12.65;;;7.18;;
8254;SDS011;4167;48.162;11.542;2024-03-02T12:52:29;14.90;;;8.88;;
8254;SDS011;4167;48.162;11.542;2024-03-02T12:54:57;15.40;;;8.60;;
8254;SDS011;4167;48.162;11.542;2024-03-02T12:57:25;10.68;;;5.68;;
8254;SDS011;4167;48.162;11.542;2024-03-02T12:59:56;18.05;;;8.43;;
8254;SDS011;4167;48.162;11.542;2024-03-02T13:02:27;15.52;;;7.35;;
8254;SDS011;4167;48.162;11.542;2024-03-02T13:04:54;16.42;;;8.65;;
8254;SDS011;4167;48.162;11.542;2024-03-02T13:07:20;17.48;;;9.98;;
8254;SDS011;4167;48.162;11.542;2024-03-02T13:09:49;16.98;;;9.50;;
8254;SDS011;4167;48.162;11.542;2024-03-02T13:12:15;18.35;;;8.50;;
8254;SDS011;4167;48.162;11.542;2024-03-02T13:14:42;17.70;;;8.40;;
8254;SDS011;4167;48.162;11.542;2024-03-02T13:17:08;17.30;;;9.40;;
8254;SDS011;4167;48.162;11.542;2024-03-02T13:19:35;17.88;;;10.82;;
8254;SDS011;4167;48.162;11.542;2024-03-02T13:22:01;14.50;;;8.93;;
8254;SDS011;4167;48.162;11.542;2024-03-02T13:24:28;14.40;;;9.20;;
8254;SDS011;4167;48.162;11.542;2024-03-02T13:26:56;14.32;;;8.63;;
8254;SDS011;4167;48.162;11.542;2024-03-02T13:29:23;17.92;;;10.02;;
8254;SDS011;4167;48.162;11.542;2024-03-02T13:31:50;17.17;;;9.48;;
8254;SDS011;4167;48.162;11.542;2024-03-02T13:34:16;10.80;;;7.18;;
8254;SDS011;4167;48.162;11.542;2024-03-02T13:36:43;12.05;;;8.75;;
8254;SDS011;4167;48.162;11.542;2024-03-02T13:39:10;14.75;;;9.50;;
8254;SDS011;4167;48.162;11.542;2024-03-02T13:41:36;13.82;;;7.63;;
8254;SDS011;4167;48.162;11.542;2024-03-02T13:44:04;13.02;;;8.00;;
8254;SDS011;4167;48.162;11.542;2024-03-02T13:46:31;20.67;;;9.88;;
8254;SDS011;4167;48.162;11.542;2024-03-02T13:48:57;15.35;;;9.45;;
8254;SDS011;4167;48.162;11.542;2024-03-02T13:51:24;15.07;;;9.75;;
8254;SDS011;4167;48.162;11.542;2024-03-02T13:53:52;14.88;;;7.97;;
8254;SDS011;4167;48.162;11.542;2024-03-02T13:56:19;13.02;;;8.95;;
8254;SDS011;4167;48.162;11.542;2024-03-02T13:58:45;15.13;;;8.40;;
8254;SDS011;4167;48.162;11.542;2024-03-02T14:01:13;17.88;;;9.52;;
8254;SDS011;4167;48.162;11.542;2024-03-02T14:03:39;16.50;;;9.60;;
8254;SDS011;4167;48.162;11.542;2024-03-02T14:06:06;15.52;;;9.32;;
8254;SDS011;4167;48.162;11.542;2024-03-02T14:08:32;10.77;;;6.38;;
8254;SDS011;4167;48.162;11.542;2024-03-02T14:11:01;15.00;;;8.30;;
8254;SDS011;4167;48.162;11.542;2024-03-02T14:13:27;11.43;;;7.20;;
8254;SDS011;4167;48.162;11.542;2024-03-02T14:15:54;12.30;;;6.30;;
8254;SDS011;4167;48.162;11.542;2024-03-02T14:18:21;13.63;;;7.75;;
8254;SDS011;4167;48.162;11.542;2024-03-02T14:20:48;10.80;;;5.90;;
8254;SDS011;4167;48.162;11.542;2024-03-02T14:23:17;15.13;;;7.45;;
8254;SDS011;4167;48.162;11.542;2024-03-02T14:25:44;13.57;;;8.15;;
8254;SDS011;4167;48.162;11.542;2024-03-02T14:28:10;13.85;;;7.28;;
8254;SDS011;4167;48.162;11.542;2024-03-02T14:30:38;10.05;;;5.40;;
8254;SDS011;4167;48.162;11.542;2024-03-02T14:33:04;13.05;;;7.28;;
8254;SDS011;4167;48.162;11.542;2024-03-02T14:35:32;11.50;;;6.35;;
8254;SDS011;4167;48.162;11.542;2024-03-02T14:37:59;11.70;;;7.13;;
8254;SDS011;4167;48.162;11.542;2024-03-02T14:40:25;13.50;;;6.85;;
8254;SDS011;4167;48.162;11.542;2024-03-02T14:42:54;11.98;;;7.07;;
8254;SDS011;4167;48.162;11.542;2024-03-02T14:45:20;12.45;;;7.13;;
8254;SDS011;4167;48.162;11.542;2024-03-02T14:47:47;14.70;;;7.00;;
8254;SDS011;4167;48.162;11.542;2024-03-02T14:50:14;11.32;;;7.70;;
8254;SDS011;4167;48.162;11.542;2024-03-02T14:55:09;13.43;;;7.85;;
8254;SDS011;4167;48.162;11.542;2024-03-02T14:57:35;12.15;;;7.68;;